createdAt,value
2019-02-06T00:02:27.564Z,85.76
2019-02-06T00:04:57.602Z,85.94
2019-02-06T00:07:27.341Z,85.91
2019-02-06T00:09:57.272Z,85.50
2019-02-06T00:12:27.114Z,85.39
2019-02-06T00:14:57.112Z,84.85
2019-02-06T00:17:27.232Z,84.90
2019-02-06T00:19:57.186Z,84.55
2019-02-06T00:22:27.052Z,84.53
2019-02-06T00:24:56.857Z,84.42
2019-02-06T00:27:26.938Z,84.10
2019-02-06T00:29:56.897Z,83.31
2019-02-06T00:32:26.732Z,82.91
2019-02-06T00:34:56.810Z,82.96
2019-02-06T00:37:26.658Z,83.60
2019-02-06T00:39:56.633Z,84.12
2019-02-06T00:42:26.395Z,84.58
2019-02-06T00:44:56.201Z,84.76
2019-02-06T00:47:27.373Z,84.86
2019-02-06T00:49:57.471Z,85.24
2019-02-06T00:52:27.516Z,85.80
2019-02-06T00:54:57.889Z,85.46
2019-02-06T00:57:27.713Z,85.79
2019-02-06T00:59:58.493Z,86.02
2019-02-06T01:02:28.639Z,86.19
2019-02-06T01:04:59.517Z,86.42
2019-02-06T01:07:29.678Z,86.00
2019-02-06T01:09:59.721Z,86.00
2019-02-06T01:12:29.596Z,85.96
2019-02-06T01:14:59.489Z,86.17
2019-02-06T01:17:29.610Z,85.74
2019-02-06T01:19:59.552Z,85.79
2019-02-06T01:22:29.356Z,85.57
2019-02-06T01:24:59.299Z,85.72
2019-02-06T01:27:29.177Z,85.70
2019-02-06T01:29:58.919Z,85.86
2019-02-06T01:32:28.950Z,85.41
2019-02-06T01:34:58.941Z,86.33
2019-02-06T01:37:28.857Z,86.29
2019-02-06T01:40:01.026Z,86.76
2019-02-06T01:42:30.835Z,86.63
2019-02-06T01:45:00.841Z,86.63
2019-02-06T01:47:30.595Z,86.40
2019-02-06T01:50:00.734Z,86.75
2019-02-06T01:52:30.918Z,87.09
2019-02-06T01:55:01.000Z,86.84
2019-02-06T01:57:30.941Z,86.65
2019-02-06T02:00:00.779Z,86.90
2019-02-06T02:02:30.635Z,86.71
2019-02-06T02:05:00.529Z,86.50
2019-02-06T02:07:30.826Z,86.53
2019-02-06T02:10:00.884Z,86.64
2019-02-06T02:12:30.750Z,87.07
2019-02-06T02:15:00.719Z,86.90
2019-02-06T02:17:30.644Z,86.78
2019-02-06T02:20:00.762Z,87.15
2019-02-06T02:22:30.874Z,86.93
2019-02-06T02:25:00.844Z,87.03
2019-02-06T02:27:30.657Z,87.01
2019-02-06T02:30:00.528Z,87.17
2019-02-06T02:32:30.408Z,87.12
2019-02-06T02:35:00.330Z,86.91
2019-02-06T02:37:30.513Z,87.35
2019-02-06T02:40:00.523Z,87.66
2019-02-06T02:42:30.641Z,87.96
2019-02-06T02:45:00.558Z,87.90
2019-02-06T02:47:30.534Z,87.80
2019-02-06T02:50:00.535Z,87.69
2019-02-06T02:52:30.301Z,87.97
2019-02-06T02:55:00.279Z,88.64
2019-02-06T02:57:30.299Z,88.68
2019-02-06T03:00:00.053Z,88.64
2019-02-06T03:02:46.691Z,88.58
2019-02-06T03:06:09.715Z,88.10
2019-02-06T03:08:39.565Z,87.84
2019-02-06T03:11:09.569Z,87.87
2019-02-06T03:13:39.629Z,88.46
2019-02-06T03:16:09.745Z,88.80
2019-02-06T03:18:39.805Z,88.85
2019-02-06T03:21:09.979Z,88.87
2019-02-06T03:23:39.781Z,88.90
2019-02-06T03:26:09.753Z,89.25
2019-02-06T03:28:39.524Z,88.88
2019-02-06T03:31:09.522Z,88.55
2019-02-06T03:33:41.225Z,88.79
2019-02-06T03:36:11.150Z,87.93
2019-02-06T03:38:41.150Z,87.69
2019-02-06T03:41:10.982Z,87.87
2019-02-06T03:43:40.849Z,87.95
2019-02-06T03:46:10.713Z,88.02
2019-02-06T03:48:40.629Z,87.41
2019-02-06T03:51:10.571Z,87.03
2019-02-06T03:53:40.572Z,87.27
2019-02-06T03:56:10.426Z,87.33
2019-02-06T03:58:40.375Z,87.42
2019-02-06T04:01:11.444Z,87.70
2019-02-06T04:03:41.777Z,87.80
2019-02-06T04:06:11.645Z,87.73
2019-02-06T04:08:41.853Z,88.02
2019-02-06T04:11:12.800Z,87.85
2019-02-06T04:13:42.523Z,87.54
2019-02-06T04:16:12.603Z,87.90
2019-02-06T04:18:42.669Z,87.53
2019-02-06T04:21:12.458Z,87.86
2019-02-06T04:23:42.481Z,87.97
2019-02-06T04:26:12.299Z,87.65
2019-02-06T04:28:42.153Z,87.04
2019-02-06T04:31:12.226Z,86.85
2019-02-06T04:33:42.052Z,86.65
2019-02-06T04:36:11.886Z,86.96
2019-02-06T04:38:41.880Z,87.38
2019-02-06T04:41:11.721Z,87.64
2019-02-06T04:43:41.623Z,87.84
2019-02-06T04:46:12.670Z,88.38
2019-02-06T04:48:42.619Z,88.78
2019-02-06T04:51:12.639Z,88.96
2019-02-06T04:53:42.463Z,89.02
2019-02-06T04:56:12.455Z,89.11
2019-02-06T04:58:42.248Z,88.98
2019-02-06T05:01:12.149Z,88.99
2019-02-06T05:03:41.887Z,89.19
2019-02-06T05:06:11.865Z,89.02
2019-02-06T05:08:42.012Z,89.18
2019-02-06T05:11:11.934Z,88.63
2019-02-06T05:13:41.761Z,88.85
2019-02-06T05:16:11.906Z,88.70
2019-02-06T05:18:41.782Z,88.44
2019-02-06T05:21:11.601Z,88.89
2019-02-06T05:23:41.467Z,88.79
2019-02-06T05:26:11.583Z,88.67
2019-02-06T05:28:41.384Z,88.61
2019-02-06T05:31:11.414Z,88.79
2019-02-06T05:33:41.471Z,88.92
2019-02-06T05:36:11.327Z,89.11
2019-02-06T05:38:41.543Z,89.09
2019-02-06T05:41:11.486Z,89.16
2019-02-06T05:43:41.165Z,89.09
2019-02-06T05:46:11.409Z,89.18
2019-02-06T05:48:41.234Z,89.12
2019-02-06T05:51:11.057Z,89.15
2019-02-06T05:53:40.959Z,89.01
2019-02-06T05:56:10.843Z,89.07
2019-02-06T05:58:40.832Z,89.03
2019-02-06T06:01:10.819Z,88.99
2019-02-06T06:03:41.483Z,88.78
2019-02-06T06:06:12.174Z,88.73
2019-02-06T06:08:41.976Z,88.51
2019-02-06T06:11:12.186Z,88.51
2019-02-06T06:13:42.245Z,88.65
2019-02-06T06:16:12.369Z,88.54
2019-02-06T06:18:42.436Z,88.50
2019-02-06T06:21:12.291Z,88.64
2019-02-06T06:23:42.213Z,88.60
2019-02-06T06:26:12.270Z,88.46
2019-02-06T06:28:42.345Z,88.53
2019-02-06T06:31:12.050Z,88.60
2019-02-06T06:33:41.899Z,88.55
2019-02-06T06:36:11.664Z,88.60
2019-02-06T06:38:41.488Z,88.56
2019-02-06T06:41:11.342Z,88.63
2019-02-06T06:43:41.306Z,88.42
2019-02-06T06:46:11.783Z,88.29
2019-02-06T06:48:41.962Z,88.20
2019-02-06T06:51:11.783Z,88.38
2019-02-06T06:53:41.686Z,88.33
2019-02-06T06:56:11.659Z,88.23
2019-02-06T06:58:41.440Z,88.19
2019-02-06T07:01:11.756Z,88.31
2019-02-06T07:03:41.599Z,88.22
2019-02-06T07:06:11.393Z,88.19
2019-02-06T07:08:41.400Z,88.00
2019-02-06T07:11:11.344Z,88.00
2019-02-06T07:13:41.231Z,87.71
2019-02-06T07:16:11.182Z,87.67
2019-02-06T07:18:40.976Z,87.36
2019-02-06T07:21:10.825Z,87.39
2019-02-06T07:23:40.799Z,87.50
2019-02-06T07:26:10.831Z,87.07
2019-02-06T07:28:40.681Z,87.18
2019-02-06T07:31:10.896Z,86.58
2019-02-06T07:33:41.121Z,86.20
2019-02-06T07:36:11.124Z,85.88
2019-02-06T07:38:40.911Z,86.91
2019-02-06T07:41:10.770Z,86.47
2019-02-06T07:43:41.056Z,86.82
2019-02-06T07:46:10.930Z,86.95
2019-02-06T07:48:40.954Z,86.54
2019-02-06T07:51:10.816Z,87.09
2019-02-06T07:53:40.697Z,87.23
2019-02-06T07:56:10.680Z,86.86
2019-02-06T07:58:41.227Z,86.79
2019-02-06T08:01:11.875Z,86.55
2019-02-06T08:03:41.722Z,86.45
2019-02-06T08:06:11.972Z,86.30
2019-02-06T08:08:41.829Z,85.84
2019-02-06T08:11:11.661Z,85.92
2019-02-06T08:13:42.247Z,85.98
2019-02-06T08:16:13.054Z,86.51
2019-02-06T08:18:42.981Z,87.39
2019-02-06T08:21:13.138Z,87.59
2019-02-06T08:23:43.032Z,87.90
2019-02-06T08:26:13.014Z,87.86
2019-02-06T08:28:43.268Z,87.35
2019-02-06T08:31:13.020Z,87.46
2019-02-06T08:33:43.102Z,87.80
2019-02-06T08:36:12.910Z,88.12
2019-02-06T08:38:47.978Z,88.28
2019-02-06T08:41:14.260Z,88.06
2019-02-06T08:43:43.987Z,88.43
2019-02-06T08:46:15.068Z,88.41
2019-02-06T08:48:45.138Z,88.42
2019-02-06T08:51:14.964Z,88.45
2019-02-06T08:53:46.131Z,88.34
2019-02-06T08:56:16.571Z,88.01
2019-02-06T08:58:46.548Z,87.50
2019-02-06T09:01:16.512Z,87.57
2019-02-06T09:03:46.479Z,87.03
2019-02-06T09:06:16.400Z,87.15
2019-02-06T09:08:46.311Z,86.40
2019-02-06T09:11:16.449Z,86.14
2019-02-06T09:13:46.388Z,86.88
2019-02-06T09:16:16.396Z,87.35
2019-02-06T09:18:46.395Z,87.19
2019-02-06T09:21:16.405Z,87.39
2019-02-06T09:23:46.409Z,87.68
2019-02-06T09:26:16.237Z,88.20
2019-02-06T09:28:46.020Z,87.71
2019-02-06T09:31:17.133Z,87.29
2019-02-06T09:33:47.034Z,87.47
2019-02-06T09:36:16.939Z,87.75
2019-02-06T09:38:48.091Z,87.62
2019-02-06T09:41:17.915Z,87.11
2019-02-06T09:43:47.812Z,87.33
2019-02-06T09:46:17.919Z,86.60
2019-02-06T09:48:47.984Z,86.13
2019-02-06T09:51:19.345Z,83.77
2019-02-06T09:53:49.690Z,82.04
2019-02-06T09:56:19.648Z,81.22
2019-02-06T09:58:49.817Z,81.75
2019-02-06T10:01:21.522Z,81.31
2019-02-06T10:03:51.628Z,78.06
2019-02-06T10:06:21.362Z,79.39
2019-02-06T10:08:51.581Z,78.75
2019-02-06T10:11:21.381Z,77.91
2019-02-06T10:13:51.417Z,78.22
2019-02-06T10:16:21.164Z,79.65
2019-02-06T10:18:52.315Z,79.80
2019-02-06T10:21:22.193Z,79.10
2019-02-06T10:23:52.118Z,77.83
2019-02-06T10:26:22.073Z,77.56
2019-02-06T10:28:51.948Z,79.36
2019-02-06T10:31:21.863Z,77.70
2019-02-06T10:33:51.751Z,75.74
2019-02-06T10:36:21.716Z,74.83
2019-02-06T10:38:51.641Z,67.85
2019-02-06T10:41:21.567Z,67.84
2019-02-06T10:43:51.431Z,70.53
2019-02-06T10:46:21.638Z,58.52
2019-02-06T10:48:51.538Z,70.98
2019-02-06T10:51:21.392Z,71.56
2019-02-06T10:53:51.342Z,72.69
2019-02-06T10:56:21.174Z,72.43
2019-02-06T10:58:51.171Z,68.88
2019-02-06T11:01:21.290Z,71.54
2019-02-06T11:03:51.375Z,77.32
2019-02-06T11:06:21.931Z,77.26
2019-02-06T11:08:51.702Z,74.39
2019-02-06T11:11:21.833Z,68.96
2019-02-06T11:13:51.944Z,67.15
2019-02-06T11:16:22.172Z,70.44
2019-02-06T11:18:52.415Z,73.06
2019-02-06T11:21:22.890Z,75.61
2019-02-06T11:23:52.689Z,75.86
2019-02-06T11:26:23.872Z,76.09
2019-02-06T11:28:53.879Z,81.99
2019-02-06T11:31:23.779Z,82.18
2019-02-06T11:33:53.617Z,80.68
2019-02-06T11:36:24.459Z,80.07
2019-02-06T11:38:54.551Z,74.78
2019-02-06T11:41:24.414Z,76.03
2019-02-06T11:43:54.391Z,76.47
2019-02-06T11:46:24.492Z,72.10
2019-02-06T11:48:54.898Z,73.79
2019-02-06T11:51:24.752Z,75.16
2019-02-06T11:53:54.672Z,74.62
2019-02-06T11:56:24.461Z,73.68
2019-02-06T11:58:54.459Z,77.86
2019-02-06T12:01:34.687Z,74.28
2019-02-06T12:04:04.739Z,77.52
2019-02-06T12:06:34.569Z,73.02
2019-02-06T12:09:07.451Z,72.93
2019-02-06T12:11:37.250Z,77.34
2019-02-06T12:14:07.271Z,76.18
2019-02-06T12:16:37.696Z,79.81
2019-02-06T12:19:08.005Z,75.07
2019-02-06T12:21:37.918Z,75.86
2019-02-06T12:24:08.217Z,81.55
2019-02-06T12:26:37.959Z,78.98
2019-02-06T12:29:07.901Z,77.12
2019-02-06T12:31:37.940Z,71.28
2019-02-06T12:34:08.006Z,69.37
2019-02-06T12:36:39.100Z,79.44
2019-02-06T12:39:11.141Z,77.48
2019-02-06T12:41:41.038Z,78.52
2019-02-06T12:44:12.329Z,81.71
2019-02-06T12:46:42.856Z,84.98
2019-02-06T12:49:14.580Z,81.02
2019-02-06T12:51:44.765Z,81.16
2019-02-06T12:54:14.765Z,82.04
2019-02-06T12:56:44.533Z,82.68
2019-02-06T12:59:14.513Z,80.27
2019-02-06T13:01:44.947Z,80.36
2019-02-06T13:04:14.809Z,86.42
2019-02-06T13:06:44.716Z,85.13
2019-02-06T13:09:15.093Z,87.86
2019-02-06T13:11:44.972Z,86.89
2019-02-06T13:14:14.883Z,87.62
2019-02-06T13:16:45.040Z,87.19
2019-02-06T13:19:14.813Z,88.58
2019-02-06T13:21:44.976Z,88.95
2019-02-06T13:24:15.339Z,89.49
2019-02-06T13:26:45.257Z,88.50
2019-02-06T13:29:15.402Z,88.82
2019-02-06T13:31:46.704Z,87.12
2019-02-06T13:34:16.690Z,87.07
2019-02-06T13:36:46.546Z,87.83
2019-02-06T13:39:17.686Z,89.14
2019-02-06T13:41:47.553Z,89.44
2019-02-06T13:44:17.783Z,88.38
2019-02-06T13:46:53.193Z,86.61
2019-02-06T13:49:19.459Z,87.71
2019-02-06T13:51:49.463Z,85.50
2019-02-06T13:54:19.409Z,85.74
2019-02-06T13:56:50.658Z,87.85
2019-02-06T13:59:20.654Z,87.57
2019-02-06T14:01:50.797Z,86.86
2019-02-06T14:04:20.884Z,87.65
2019-02-06T14:06:50.704Z,86.68
2019-02-06T14:09:24.351Z,86.43
2019-02-06T14:11:52.543Z,86.63
2019-02-06T14:14:22.457Z,86.90
2019-02-06T14:16:52.744Z,86.85
2019-02-06T14:19:22.861Z,86.80
2019-02-06T14:21:52.914Z,87.57
2019-02-06T14:24:37.210Z,87.73
2019-02-06T14:27:37.986Z,85.98
2019-02-06T14:30:52.080Z,86.71
2019-02-06T14:33:59.894Z,86.24
2019-02-06T14:37:11.755Z,85.20
2019-02-06T14:40:06.850Z,86.26
2019-02-06T14:42:45.197Z,85.54
2019-02-06T14:45:53.491Z,86.16
2019-02-06T14:49:01.905Z,87.12
2019-02-06T14:52:06.412Z,86.90
2019-02-06T14:54:49.666Z,85.22
2019-02-06T14:57:57.160Z,86.06
2019-02-06T15:01:00.058Z,86.12
2019-02-06T15:03:43.601Z,86.89
2019-02-06T15:06:57.224Z,85.18
2019-02-06T15:10:08.923Z,84.84
2019-02-06T15:13:12.350Z,84.75
2019-02-06T15:15:53.935Z,85.21
2019-02-06T15:18:58.237Z,83.65
2019-02-06T15:22:04.644Z,85.54
2019-02-06T15:24:45.991Z,85.14
2019-02-06T15:27:57.693Z,84.35
2019-02-06T15:31:10.220Z,84.29
2019-02-06T15:34:22.417Z,84.12
2019-02-06T15:37:23.300Z,83.84
2019-02-06T15:40:20.677Z,84.21
2019-02-06T15:43:26.401Z,84.58
2019-02-06T15:46:25.570Z,84.37
2019-02-06T15:49:11.834Z,84.62
2019-02-06T15:52:17.811Z,83.61
2019-02-06T15:55:12.494Z,84.41
2019-02-06T15:58:17.994Z,83.75
2019-02-06T16:01:19.503Z,83.18
2019-02-06T16:04:51.803Z,83.50
2019-02-06T16:07:59.792Z,83.96
2019-02-06T16:10:55.860Z,84.38
2019-02-06T16:14:01.980Z,83.80
2019-02-06T16:16:48.088Z,83.56
2019-02-06T16:20:04.837Z,83.60
2019-02-06T16:22:49.723Z,83.50
2019-02-06T16:25:41.932Z,83.75
2019-02-06T16:28:47.380Z,83.24
2019-02-06T16:31:45.352Z,83.56
2019-02-06T16:34:50.668Z,84.29
2019-02-06T16:38:10.005Z,84.53
2019-02-06T16:41:35.477Z,84.07
2019-02-06T16:44:31.549Z,84.17
2019-02-06T16:47:45.832Z,83.00
2019-02-06T16:50:26.708Z,82.70
2019-02-06T16:53:36.600Z,81.90
2019-02-06T16:56:33.692Z,83.17
2019-02-06T16:59:49.034Z,82.01
2019-02-06T17:02:57.517Z,75.52
2019-02-06T17:05:57.496Z,73.36
2019-02-06T17:09:05.544Z,74.22
2019-02-06T17:12:10.730Z,73.15
2019-02-06T17:15:33.023Z,71.90
2019-02-06T17:18:35.355Z,71.21
2019-02-06T17:21:40.017Z,72.54
2019-02-06T17:24:33.158Z,70.69
2019-02-06T17:27:22.780Z,69.22
2019-02-06T17:30:12.944Z,68.83
2019-02-06T17:33:12.632Z,68.34
2019-02-06T17:36:21.187Z,69.28
2019-02-06T17:39:26.593Z,69.67
2019-02-06T17:42:24.809Z,71.02
2019-02-06T17:45:32.379Z,70.94
2019-02-06T17:48:38.966Z,70.14
2019-02-06T17:51:38.064Z,69.90
2019-02-06T17:54:52.428Z,69.30
2019-02-06T17:57:22.234Z,67.93
2019-02-06T17:59:52.021Z,67.66
2019-02-06T18:02:21.787Z,67.90
2019-02-06T18:04:51.572Z,68.21
2019-02-06T18:07:21.416Z,68.42
2019-02-06T18:09:51.188Z,67.71
2019-02-06T18:12:26.534Z,65.37
2019-02-06T18:14:52.896Z,64.33
2019-02-06T18:17:22.669Z,63.91
2019-02-06T18:19:52.392Z,62.30
2019-02-06T18:22:22.590Z,61.26
2019-02-06T18:24:52.420Z,60.68
2019-02-06T18:27:22.237Z,59.96
2019-02-06T18:29:53.737Z,57.85
2019-02-06T18:32:23.821Z,58.27
2019-02-06T18:34:53.868Z,58.05
2019-02-06T18:37:23.649Z,58.46
2019-02-06T18:39:54.725Z,59.09
2019-02-06T18:42:24.660Z,58.59
2019-02-06T18:44:54.630Z,58.42
2019-02-06T18:47:24.800Z,58.27
2019-02-06T18:49:54.633Z,58.27
2019-02-06T18:52:24.608Z,58.44
2019-02-06T18:54:55.569Z,58.66
2019-02-06T18:57:25.334Z,58.20
2019-02-06T18:59:55.271Z,57.67
2019-02-06T19:02:25.342Z,57.19
2019-02-06T19:04:55.236Z,57.33
2019-02-06T19:07:25.245Z,56.92
2019-02-06T19:09:55.324Z,54.92
2019-02-06T19:12:25.303Z,51.71
2019-02-06T19:14:55.177Z,47.61
2019-02-06T19:17:25.002Z,44.00
2019-02-06T19:19:54.870Z,40.11
2019-02-06T19:22:25.353Z,39.20
2019-02-06T19:24:55.241Z,39.41
2019-02-06T19:27:25.125Z,39.78
2019-02-06T19:29:54.998Z,41.13
2019-02-06T19:32:26.121Z,43.85
2019-02-06T19:34:57.061Z,46.53
2019-02-06T19:37:27.019Z,50.78
2019-02-06T19:39:57.016Z,51.31
2019-02-06T19:42:26.912Z,53.06
2019-02-06T19:44:57.010Z,54.51
2019-02-06T19:47:28.784Z,54.40
2019-02-06T19:49:58.397Z,55.29
2019-02-06T19:52:29.472Z,59.78
2019-02-06T19:54:59.479Z,65.43
2019-02-06T19:57:29.301Z,67.01
2019-02-06T20:00:00.635Z,66.22
2019-02-06T20:02:30.559Z,65.38
2019-02-06T20:05:01.614Z,65.35
2019-02-06T20:07:31.352Z,62.92
2019-02-06T20:10:01.213Z,65.06
2019-02-06T20:12:31.028Z,63.65
2019-02-06T20:15:00.738Z,64.07
2019-02-06T20:17:30.555Z,65.75
2019-02-06T20:20:00.369Z,64.23
2019-02-06T20:22:31.432Z,65.21
2019-02-06T20:25:01.212Z,67.07
2019-02-06T20:27:31.460Z,67.82
2019-02-06T20:30:01.314Z,67.12
2019-02-06T20:32:31.207Z,65.16
2019-02-06T20:35:01.194Z,61.90
2019-02-06T20:37:30.976Z,59.01
2019-02-06T20:40:00.794Z,57.02
2019-02-06T20:42:30.550Z,57.36
2019-02-06T20:45:00.478Z,60.98
2019-02-06T20:47:30.341Z,62.51
2019-02-06T20:50:00.331Z,64.79
2019-02-06T20:52:30.219Z,67.90
2019-02-06T20:55:00.308Z,70.95
2019-02-06T20:57:30.145Z,72.28
2019-02-06T21:00:00.375Z,73.73
2019-02-06T21:02:30.035Z,75.55
2019-02-06T21:04:59.696Z,75.73
2019-02-06T21:07:30.755Z,80.03
2019-02-06T21:10:00.718Z,81.92
2019-02-06T21:12:30.481Z,83.75
2019-02-06T21:15:00.379Z,84.16
2019-02-06T21:17:30.281Z,84.96
2019-02-06T21:20:00.311Z,85.24
2019-02-06T21:22:30.264Z,85.82
2019-02-06T21:25:00.179Z,87.17
2019-02-06T21:27:29.980Z,87.13
2019-02-06T21:29:59.903Z,86.72
2019-02-06T21:32:29.893Z,85.35
2019-02-06T21:34:59.738Z,86.41
2019-02-06T21:37:29.625Z,86.12
2019-02-06T21:39:59.665Z,86.03
2019-02-06T21:42:29.483Z,86.55
2019-02-06T21:44:59.459Z,86.65
2019-02-06T21:47:29.302Z,87.08
2019-02-06T21:49:59.215Z,86.72
2019-02-06T21:52:28.985Z,86.42
2019-02-06T21:54:58.872Z,86.25
2019-02-06T21:57:28.865Z,86.66
2019-02-06T21:59:59.938Z,87.02
2019-02-06T22:02:29.719Z,86.99
2019-02-06T22:04:59.422Z,87.37
2019-02-06T22:07:29.195Z,86.58
2019-02-06T22:09:58.951Z,87.29
2019-02-06T22:12:28.883Z,86.66
2019-02-06T22:14:58.819Z,86.93
2019-02-06T22:17:28.609Z,87.16
2019-02-06T22:19:58.416Z,87.48
2019-02-06T22:22:28.191Z,87.51
2019-02-06T22:24:57.967Z,86.46
2019-02-06T22:27:27.779Z,86.33
2019-02-06T22:29:57.634Z,87.31
2019-02-06T22:32:27.288Z,86.51
2019-02-06T22:34:58.462Z,86.54
2019-02-06T22:37:28.423Z,86.22
2019-02-06T22:39:58.490Z,87.57
2019-02-06T22:42:28.486Z,87.79
2019-02-06T22:44:58.774Z,87.53
2019-02-06T22:47:28.417Z,86.83
2019-02-06T22:49:58.656Z,86.09
2019-02-06T22:52:28.618Z,84.99
2019-02-06T22:54:58.711Z,83.38
2019-02-06T22:57:28.771Z,82.62
2019-02-06T22:59:58.621Z,82.95
2019-02-06T23:02:28.332Z,81.77
2019-02-06T23:04:58.197Z,83.26
2019-02-06T23:07:28.063Z,82.98
2019-02-06T23:09:57.684Z,83.48
2019-02-06T23:12:27.513Z,83.35
2019-02-06T23:14:57.302Z,82.81
2019-02-06T23:17:27.021Z,82.99
2019-02-06T23:19:56.983Z,86.27
2019-02-06T23:22:27.258Z,85.29
2019-02-06T23:24:56.969Z,81.11
2019-02-06T23:27:26.830Z,79.08
2019-02-06T23:29:56.744Z,79.74
2019-02-06T23:32:26.642Z,75.69
2019-02-06T23:34:56.549Z,72.42
2019-02-06T23:37:26.621Z,71.56
2019-02-06T23:39:56.619Z,69.35
2019-02-06T23:42:26.492Z,68.55
2019-02-06T23:44:56.324Z,67.58
2019-02-06T23:47:26.173Z,66.79
2019-02-06T23:49:55.942Z,67.49
2019-02-06T23:52:25.845Z,67.96
2019-02-06T23:54:55.611Z,68.21
2019-02-06T23:57:25.269Z,68.44
2019-02-06T23:59:55.185Z,68.36
